sensor_id;sensor_type;location;lat;lon;timestamp;temperature;humidity
10010;DHT22;5044;48.652;9.250;2022-07-03T00:01:57;16.90;99.90
10010;DHT22;5044;48.652;9.250;2022-07-03T00:04:24;16.90;99.10
10010;DHT22;5044;48.652;9.250;2022-07-03T00:06:53;16.90;99.90
10010;DHT22;5044;48.652;9.250;2022-07-03T00:09:21;16.90;99.90
10010;DHT22;5044;48.652;9.250;2022-07-03T00:11:49;16.80;98.70
10010;DHT22;5044;48.652;9.250;2022-07-03T00:14:15;16.80;99.90
10010;DHT22;5044;48.652;9.250;2022-07-03T00:16:42;16.80;99.60
10010;DHT22;5044;48.652;9.250;2022-07-03T00:19:09;16.80;99.60
10010;DHT22;5044;48.652;9.250;2022-07-03T00:21:44;16.70;99.90
10010;DHT22;5044;48.652;9.250;2022-07-03T00:24:18;16.70;99.10
10010;DHT22;5044;48.652;9.250;2022-07-03T00:26:51;16.70;99.90
10010;DHT22;5044;48.652;9.250;2022-07-03T00:29:21;16.70;99.90
10010;DHT22;5044;48.652;9.250;2022-07-03T00:31:49;16.70;99.90
10010;DHT22;5044;48.652;9.250;2022-07-03T00:34:17;16.70;99.90
10010;DHT22;5044;48.652;9.250;2022-07-03T00:36:47;16.60;98.90
10010;DHT22;5044;48.652;9.250;2022-07-03T00:39:14;16.60;99.20
10010;DHT22;5044;48.652;9.250;2022-07-03T00:41:41;16.60;99.90
10010;DHT22;5044;48.652;9.250;2022-07-03T00:44:10;16.60;98.70
10010;DHT22;5044;48.652;9.250;2022-07-03T00:46:38;16.60;99.90
10010;DHT22;5044;48.652;9.250;2022-07-03T00:49:06;16.60;99.90
10010;DHT22;5044;48.652;9.250;2022-07-03T00:51:40;16.50;99.40
10010;DHT22;5044;48.652;9.250;2022-07-03T00:54:08;16.50;99.90
10010;DHT22;5044;48.652;9.250;2022-07-03T00:56:39;16.50;99.90
10010;DHT22;5044;48.652;9.250;2022-07-03T00:59:06;16.50;99.70
10010;DHT22;5044;48.652;9.250;2022-07-03T01:01:39;16.40;99.90
10010;DHT22;5044;48.652;9.250;2022-07-03T01:04:19;16.50;99.90
10010;DHT22;5044;48.652;9.250;2022-07-03T01:06:53;16.50;99.90
10010;DHT22;5044;48.652;9.250;2022-07-03T01:09:34;16.50;99.90
10010;DHT22;5044;48.652;9.250;2022-07-03T01:12:08;16.50;99.90
10010;DHT22;5044;48.652;9.250;2022-07-03T01:14:43;16.50;99.90
10010;DHT22;5044;48.652;9.250;2022-07-03T01:17:20;16.40;99.90
10010;DHT22;5044;48.652;9.250;2022-07-03T01:19:49;16.40;99.90
10010;DHT22;5044;48.652;9.250;2022-07-03T01:22:30;16.40;99.90
10010;DHT22;5044;48.652;9.250;2022-07-03T01:25:14;16.40;99.90
10010;DHT22;5044;48.652;9.250;2022-07-03T01:28:08;16.30;99.90
10010;DHT22;5044;48.652;9.250;2022-07-03T01:30:37;16.30;99.90
10010;DHT22;5044;48.652;9.250;2022-07-03T01:33:09;16.30;99.90
10010;DHT22;5044;48.652;9.250;2022-07-03T01:35:40;16.30;99.90
10010;DHT22;5044;48.652;9.250;2022-07-03T01:38:09;16.30;99.90
10010;DHT22;5044;48.652;9.250;2022-07-03T01:40:44;16.30;99.90
10010;DHT22;5044;48.652;9.250;2022-07-03T01:43:14;16.20;99.90
10010;DHT22;5044;48.652;9.250;2022-07-03T01:45:47;16.20;99.90
10010;DHT22;5044;48.652;9.250;2022-07-03T01:48:16;16.30;99.90
10010;DHT22;5044;48.652;9.250;2022-07-03T01:50:46;16.30;99.90
10010;DHT22;5044;48.652;9.250;2022-07-03T01:53:17;16.20;99.90
10010;DHT22;5044;48.652;9.250;2022-07-03T01:55:45;16.20;99.90
10010;DHT22;5044;48.652;9.250;2022-07-03T01:58:14;16.10;99.90
10010;DHT22;5044;48.652;9.250;2022-07-03T02:00:48;16.10;99.90
10010;DHT22;5044;48.652;9.250;2022-07-03T02:03:24;16.10;99.90
10010;DHT22;5044;48.652;9.250;2022-07-03T02:06:03;16.10;99.90
10010;DHT22;5044;48.652;9.250;2022-07-03T02:08:47;16.10;99.90
10010;DHT22;5044;48.652;9.250;2022-07-03T02:14:12;16.00;99.90
10010;DHT22;5044;48.652;9.250;2022-07-03T02:16:57;16.00;99.90
10010;DHT22;5044;48.652;9.250;2022-07-03T02:19:34;16.00;99.90
10010;DHT22;5044;48.652;9.250;2022-07-03T02:22:07;16.00;99.90
10010;DHT22;5044;48.652;9.250;2022-07-03T02:24:41;15.90;99.90
10010;DHT22;5044;48.652;9.250;2022-07-03T02:27:14;15.90;99.90
10010;DHT22;5044;48.652;9.250;2022-07-03T02:29:50;15.90;99.90
10010;DHT22;5044;48.652;9.250;2022-07-03T02:32:26;15.90;99.90
10010;DHT22;5044;48.652;9.250;2022-07-03T02:35:00;15.80;99.90
10010;DHT22;5044;48.652;9.250;2022-07-03T02:37:31;15.70;99.90
10010;DHT22;5044;48.652;9.250;2022-07-03T02:40:03;15.70;99.90
10010;DHT22;5044;48.652;9.250;2022-07-03T02:42:39;15.60;99.90
10010;DHT22;5044;48.652;9.250;2022-07-03T02:45:11;15.60;99.90
10010;DHT22;5044;48.652;9.250;2022-07-03T02:47:47;15.60;99.90
10010;DHT22;5044;48.652;9.250;2022-07-03T02:50:21;15.60;99.90
10010;DHT22;5044;48.652;9.250;2022-07-03T02:53:01;15.60;99.90
10010;DHT22;5044;48.652;9.250;2022-07-03T02:55:39;15.60;99.90
10010;DHT22;5044;48.652;9.250;2022-07-03T02:58:21;15.50;99.90
10010;DHT22;5044;48.652;9.250;2022-07-03T03:00:59;15.60;99.90
10010;DHT22;5044;48.652;9.250;2022-07-03T03:03:31;15.50;99.90
10010;DHT22;5044;48.652;9.250;2022-07-03T03:06:02;15.50;99.90
10010;DHT22;5044;48.652;9.250;2022-07-03T03:08:36;15.50;99.90
10010;DHT22;5044;48.652;9.250;2022-07-03T03:11:11;15.50;99.90
10010;DHT22;5044;48.652;9.250;2022-07-03T03:13:44;15.50;99.90
10010;DHT22;5044;48.652;9.250;2022-07-03T04:23:53;15.00;99.90
10010;DHT22;5044;48.652;9.250;2022-07-03T04:26:20;15.00;99.90
10010;DHT22;5044;48.652;9.250;2022-07-03T04:28:55;15.00;99.90
10010;DHT22;5044;48.652;9.250;2022-07-03T04:31:24;15.10;99.90
10010;DHT22;5044;48.652;9.250;2022-07-03T04:33:52;15.00;99.90
10010;DHT22;5044;48.652;9.250;2022-07-03T04:36:19;15.10;99.90
10010;DHT22;5044;48.652;9.250;2022-07-03T04:38:50;15.00;99.90
10010;DHT22;5044;48.652;9.250;2022-07-03T04:41:20;15.10;99.90
10010;DHT22;5044;48.652;9.250;2022-07-03T04:43:47;15.20;99.90
10010;DHT22;5044;48.652;9.250;2022-07-03T04:46:14;15.20;99.90
10010;DHT22;5044;48.652;9.250;2022-07-03T04:48:41;15.00;99.90
10010;DHT22;5044;48.652;9.250;2022-07-03T04:51:08;15.10;99.90
10010;DHT22;5044;48.652;9.250;2022-07-03T04:53:35;15.10;99.90
10010;DHT22;5044;48.652;9.250;2022-07-03T04:56:04;15.30;99.90
10010;DHT22;5044;48.652;9.250;2022-07-03T04:58:33;15.00;99.90
10010;DHT22;5044;48.652;9.250;2022-07-03T05:01:06;15.10;99.90
10010;DHT22;5044;48.652;9.250;2022-07-03T05:03:35;15.10;99.90
10010;DHT22;5044;48.652;9.250;2022-07-03T05:06:02;15.10;99.90
10010;DHT22;5044;48.652;9.250;2022-07-03T05:08:29;15.20;99.90
10010;DHT22;5044;48.652;9.250;2022-07-03T05:10:56;15.30;99.90
10010;DHT22;5044;48.652;9.250;2022-07-03T05:13:23;15.30;99.90
10010;DHT22;5044;48.652;9.250;2022-07-03T05:15:52;15.20;99.90
10010;DHT22;5044;48.652;9.250;2022-07-03T05:18:20;15.30;99.90
10010;DHT22;5044;48.652;9.250;2022-07-03T05:20:48;15.40;99.90
10010;DHT22;5044;48.652;9.250;2022-07-03T05:23:17;15.60;99.90
10010;DHT22;5044;48.652;9.250;2022-07-03T05:25:46;15.50;99.90
10010;DHT22;5044;48.652;9.250;2022-07-03T05:28:15;15.70;99.90
10010;DHT22;5044;48.652;9.250;2022-07-03T05:30:44;16.00;99.90
10010;DHT22;5044;48.652;9.250;2022-07-03T05:33:15;16.10;99.90
10010;DHT22;5044;48.652;9.250;2022-07-03T05:35:43;16.40;99.90
10010;DHT22;5044;48.652;9.250;2022-07-03T05:38:11;16.50;99.90
10010;DHT22;5044;48.652;9.250;2022-07-03T05:40:39;16.70;99.90
10010;DHT22;5044;48.652;9.250;2022-07-03T05:43:36;17.00;99.90
10010;DHT22;5044;48.652;9.250;2022-07-03T05:46:04;17.40;99.90
10010;DHT22;5044;48.652;9.250;2022-07-03T05:48:37;17.60;99.90
10010;DHT22;5044;48.652;9.250;2022-07-03T05:51:05;17.80;99.90
10010;DHT22;5044;48.652;9.250;2022-07-03T05:53:31;18.10;99.90
10010;DHT22;5044;48.652;9.250;2022-07-03T05:56:02;18.30;99.90
10010;DHT22;5044;48.652;9.250;2022-07-03T05:58:34;18.60;99.90
10010;DHT22;5044;48.652;9.250;2022-07-03T06:01:01;18.80;99.90
10010;DHT22;5044;48.652;9.250;2022-07-03T06:03:28;19.10;99.90
10010;DHT22;5044;48.652;9.250;2022-07-03T06:06:01;19.30;99.90
10010;DHT22;5044;48.652;9.250;2022-07-03T06:08:37;19.50;99.90
10010;DHT22;5044;48.652;9.250;2022-07-03T06:11:04;19.60;99.90
10010;DHT22;5044;48.652;9.250;2022-07-03T06:13:32;19.70;99.90
10010;DHT22;5044;48.652;9.250;2022-07-03T06:15:59;20.00;99.90
10010;DHT22;5044;48.652;9.250;2022-07-03T06:18:31;20.20;99.90
10010;DHT22;5044;48.652;9.250;2022-07-03T06:24:35;20.60;99.90
10010;DHT22;5044;48.652;9.250;2022-07-03T06:27:05;20.80;99.90
10010;DHT22;5044;48.652;9.250;2022-07-03T06:29:49;21.00;99.90
10010;DHT22;5044;48.652;9.250;2022-07-03T06:32:16;21.20;99.90
10010;DHT22;5044;48.652;9.250;2022-07-03T06:34:43;21.40;99.90
10010;DHT22;5044;48.652;9.250;2022-07-03T06:37:11;21.50;99.90
10010;DHT22;5044;48.652;9.250;2022-07-03T06:39:40;21.70;99.90
10010;DHT22;5044;48.652;9.250;2022-07-03T06:42:07;21.90;99.90
10010;DHT22;5044;48.652;9.250;2022-07-03T06:44:34;22.00;99.90
10010;DHT22;5044;48.652;9.250;2022-07-03T06:47:01;22.20;99.90
10010;DHT22;5044;48.652;9.250;2022-07-03T06:49:29;22.40;99.90
10010;DHT22;5044;48.652;9.250;2022-07-03T06:51:56;22.50;99.50
10010;DHT22;5044;48.652;9.250;2022-07-03T06:54:23;22.70;99.90
10010;DHT22;5044;48.652;9.250;2022-07-03T06:56:51;22.70;99.20
10010;DHT22;5044;48.652;9.250;2022-07-03T06:59:18;23.00;97.40
10010;DHT22;5044;48.652;9.250;2022-07-03T07:01:46;23.20;98.40
10010;DHT22;5044;48.652;9.250;2022-07-03T07:04:12;23.30;99.50
10010;DHT22;5044;48.652;9.250;2022-07-03T07:06:39;23.50;98.00
10010;DHT22;5044;48.652;9.250;2022-07-03T07:09:06;23.70;96.80
10010;DHT22;5044;48.652;9.250;2022-07-03T07:11:33;23.90;96.90
10010;DHT22;5044;48.652;9.250;2022-07-03T07:14:02;24.10;94.70
10010;DHT22;5044;48.652;9.250;2022-07-03T07:16:31;24.30;94.50
10010;DHT22;5044;48.652;9.250;2022-07-03T07:18:58;24.40;94.50
10010;DHT22;5044;48.652;9.250;2022-07-03T07:21:25;24.60;94.60
10010;DHT22;5044;48.652;9.250;2022-07-03T07:23:52;24.80;94.20
10010;DHT22;5044;48.652;9.250;2022-07-03T07:26:19;25.00;94.70
10010;DHT22;5044;48.652;9.250;2022-07-03T07:28:47;25.10;93.70
10010;DHT22;5044;48.652;9.250;2022-07-03T07:31:16;25.20;93.00
10010;DHT22;5044;48.652;9.250;2022-07-03T07:33:43;25.20;92.40
10010;DHT22;5044;48.652;9.250;2022-07-03T07:36:10;25.40;93.30
10010;DHT22;5044;48.652;9.250;2022-07-03T07:38:37;25.60;92.50
10010;DHT22;5044;48.652;9.250;2022-07-03T07:41:03;25.70;92.00
10010;DHT22;5044;48.652;9.250;2022-07-03T07:43:30;25.80;91.60
10010;DHT22;5044;48.652;9.250;2022-07-03T07:45:57;26.10;90.50
10010;DHT22;5044;48.652;9.250;2022-07-03T07:48:26;26.30;87.30
10010;DHT22;5044;48.652;9.250;2022-07-03T07:50:52;26.50;87.30
10010;DHT22;5044;48.652;9.250;2022-07-03T07:53:20;26.60;84.00
10010;DHT22;5044;48.652;9.250;2022-07-03T07:55:46;26.70;87.30
10010;DHT22;5044;48.652;9.250;2022-07-03T07:58:13;27.00;87.60
10010;DHT22;5044;48.652;9.250;2022-07-03T08:00:41;27.20;88.40
10010;DHT22;5044;48.652;9.250;2022-07-03T08:03:30;27.30;83.50
10010;DHT22;5044;48.652;9.250;2022-07-03T08:06:15;27.60;87.80
10010;DHT22;5044;48.652;9.250;2022-07-03T08:08:41;27.80;79.00
10010;DHT22;5044;48.652;9.250;2022-07-03T08:11:09;27.90;81.00
10010;DHT22;5044;48.652;9.250;2022-07-03T08:13:35;27.80;73.00
10010;DHT22;5044;48.652;9.250;2022-07-03T08:16:02;28.10;85.60
10010;DHT22;5044;48.652;9.250;2022-07-03T08:18:31;28.40;76.20
10010;DHT22;5044;48.652;9.250;2022-07-03T08:20:58;28.30;70.40
10010;DHT22;5044;48.652;9.250;2022-07-03T08:23:25;28.50;64.80
10010;DHT22;5044;48.652;9.250;2022-07-03T08:25:52;28.30;75.50
10010;DHT22;5044;48.652;9.250;2022-07-03T08:28:19;28.60;79.00
10010;DHT22;5044;48.652;9.250;2022-07-03T08:30:46;29.40;71.20
10010;DHT22;5044;48.652;9.250;2022-07-03T08:33:14;29.60;67.40
10010;DHT22;5044;48.652;9.250;2022-07-03T08:35:42;29.70;73.00
10010;DHT22;5044;48.652;9.250;2022-07-03T08:38:09;29.90;71.60
10010;DHT22;5044;48.652;9.250;2022-07-03T08:40:36;29.70;58.50
10010;DHT22;5044;48.652;9.250;2022-07-03T08:43:05;29.70;68.00
10010;DHT22;5044;48.652;9.250;2022-07-03T08:45:33;30.00;66.60
10010;DHT22;5044;48.652;9.250;2022-07-03T08:48:02;30.50;60.30
10010;DHT22;5044;48.652;9.250;2022-07-03T08:50:33;30.40;63.00
10010;DHT22;5044;48.652;9.250;2022-07-03T08:53:02;30.80;57.70
10010;DHT22;5044;48.652;9.250;2022-07-03T08:55:29;30.90;56.90
10010;DHT22;5044;48.652;9.250;2022-07-03T08:57:58;31.10;57.80
10010;DHT22;5044;48.652;9.250;2022-07-03T09:00:27;30.90;61.00
10010;DHT22;5044;48.652;9.250;2022-07-03T09:02:54;31.20;57.00
10010;DHT22;5044;48.652;9.250;2022-07-03T09:05:21;31.40;57.30
10010;DHT22;5044;48.652;9.250;2022-07-03T09:07:48;31.60;62.20
10010;DHT22;5044;48.652;9.250;2022-07-03T09:10:17;31.60;55.40
10010;DHT22;5044;48.652;9.250;2022-07-03T09:12:46;31.70;58.70
10010;DHT22;5044;48.652;9.250;2022-07-03T09:15:13;31.90;61.00
10010;DHT22;5044;48.652;9.250;2022-07-03T09:17:56;32.10;54.00
10010;DHT22;5044;48.652;9.250;2022-07-03T09:20:31;31.60;56.20
10010;DHT22;5044;48.652;9.250;2022-07-03T09:23:16;31.80;57.20
10010;DHT22;5044;48.652;9.250;2022-07-03T09:25:52;32.40;53.10
10010;DHT22;5044;48.652;9.250;2022-07-03T09:28:20;31.70;50.80
10010;DHT22;5044;48.652;9.250;2022-07-03T09:30:56;31.60;50.40
10010;DHT22;5044;48.652;9.250;2022-07-03T09:33:23;31.90;48.00
10010;DHT22;5044;48.652;9.250;2022-07-03T09:35:53;32.10;48.50
10010;DHT22;5044;48.652;9.250;2022-07-03T09:38:20;32.60;52.60
10010;DHT22;5044;48.652;9.250;2022-07-03T09:40:49;32.60;50.70
10010;DHT22;5044;48.652;9.250;2022-07-03T09:43:23;33.20;50.60
10010;DHT22;5044;48.652;9.250;2022-07-03T09:45:53;33.20;55.10
10010;DHT22;5044;48.652;9.250;2022-07-03T09:48:27;33.50;52.10
10010;DHT22;5044;48.652;9.250;2022-07-03T09:51:15;33.10;50.70
10010;DHT22;5044;48.652;9.250;2022-07-03T09:53:48;33.00;45.90
10010;DHT22;5044;48.652;9.250;2022-07-03T09:56:16;33.50;52.10
10010;DHT22;5044;48.652;9.250;2022-07-03T09:59:00;34.00;48.80
10010;DHT22;5044;48.652;9.250;2022-07-03T10:01:27;33.00;43.50
10010;DHT22;5044;48.652;9.250;2022-07-03T10:03:54;32.50;46.40
10010;DHT22;5044;48.652;9.250;2022-07-03T10:06:48;32.70;49.40
10010;DHT22;5044;48.652;9.250;2022-07-03T10:09:18;33.70;50.30
10010;DHT22;5044;48.652;9.250;2022-07-03T10:11:45;33.30;44.90
10010;DHT22;5044;48.652;9.250;2022-07-03T10:14:15;33.40;47.60
10010;DHT22;5044;48.652;9.250;2022-07-03T10:16:43;33.40;44.30
10010;DHT22;5044;48.652;9.250;2022-07-03T10:19:13;33.60;44.60
10010;DHT22;5044;48.652;9.250;2022-07-03T10:21:42;33.20;47.00
10010;DHT22;5044;48.652;9.250;2022-07-03T10:24:11;34.00;48.80
10010;DHT22;5044;48.652;9.250;2022-07-03T10:26:39;33.70;43.30
10010;DHT22;5044;48.652;9.250;2022-07-03T10:29:09;32.90;41.80
10010;DHT22;5044;48.652;9.250;2022-07-03T10:31:44;33.20;46.20
10010;DHT22;5044;48.652;9.250;2022-07-03T10:34:17;33.80;44.50
10010;DHT22;5044;48.652;9.250;2022-07-03T10:36:47;33.70;43.70
10010;DHT22;5044;48.652;9.250;2022-07-03T10:39:26;34.00;43.40
10010;DHT22;5044;48.652;9.250;2022-07-03T10:41:56;34.30;46.90
10010;DHT22;5044;48.652;9.250;2022-07-03T10:44:51;34.00;42.30
10010;DHT22;5044;48.652;9.250;2022-07-03T10:47:42;34.20;44.10
10010;DHT22;5044;48.652;9.250;2022-07-03T10:50:10;34.70;44.70
10010;DHT22;5044;48.652;9.250;2022-07-03T10:52:38;34.70;43.40
10010;DHT22;5044;48.652;9.250;2022-07-03T10:55:06;34.20;42.10
10010;DHT22;5044;48.652;9.250;2022-07-03T10:57:33;34.20;42.90
10010;DHT22;5044;48.652;9.250;2022-07-03T11:00:17;34.50;41.80
10010;DHT22;5044;48.652;9.250;2022-07-03T11:02:48;34.90;45.70
10010;DHT22;5044;48.652;9.250;2022-07-03T11:05:20;35.00;44.00
10010;DHT22;5044;48.652;9.250;2022-07-03T11:08:04;35.00;44.70
10010;DHT22;5044;48.652;9.250;2022-07-03T11:10:33;35.40;42.90
10010;DHT22;5044;48.652;9.250;2022-07-03T11:13:07;35.40;41.60
10010;DHT22;5044;48.652;9.250;2022-07-03T11:15:37;35.40;41.50
10010;DHT22;5044;48.652;9.250;2022-07-03T11:18:17;35.20;39.60
10010;DHT22;5044;48.652;9.250;2022-07-03T11:21:07;35.10;41.50
10010;DHT22;5044;48.652;9.250;2022-07-03T11:23:42;35.60;42.40
10010;DHT22;5044;48.652;9.250;2022-07-03T11:26:21;36.10;43.80
10010;DHT22;5044;48.652;9.250;2022-07-03T11:28:53;35.70;42.50
10010;DHT22;5044;48.652;9.250;2022-07-03T11:31:21;35.40;41.20
10010;DHT22;5044;48.652;9.250;2022-07-03T11:33:57;35.70;41.50
10010;DHT22;5044;48.652;9.250;2022-07-03T11:36:25;35.40;40.90
10010;DHT22;5044;48.652;9.250;2022-07-03T11:39:07;36.10;42.50
10010;DHT22;5044;48.652;9.250;2022-07-03T11:41:45;35.70;38.70
10010;DHT22;5044;48.652;9.250;2022-07-03T11:44:17;36.20;40.90
10010;DHT22;5044;48.652;9.250;2022-07-03T11:46:51;35.60;38.10
10010;DHT22;5044;48.652;9.250;2022-07-03T11:49:22;36.10;41.30
10010;DHT22;5044;48.652;9.250;2022-07-03T11:51:56;36.30;39.90
10010;DHT22;5044;48.652;9.250;2022-07-03T11:54:23;35.90;40.00
10010;DHT22;5044;48.652;9.250;2022-07-03T11:56:50;36.00;40.80
10010;DHT22;5044;48.652;9.250;2022-07-03T11:59:17;36.50;40.50
10010;DHT22;5044;48.652;9.250;2022-07-03T12:01:45;36.40;40.10
10010;DHT22;5044;48.652;9.250;2022-07-03T12:04:13;36.90;40.50
10010;DHT22;5044;48.652;9.250;2022-07-03T12:06:43;37.20;39.70
10010;DHT22;5044;48.652;9.250;2022-07-03T12:09:15;36.50;38.40
10010;DHT22;5044;48.652;9.250;2022-07-03T12:11:51;36.80;39.10
10010;DHT22;5044;48.652;9.250;2022-07-03T12:14:19;36.40;38.50
10010;DHT22;5044;48.652;9.250;2022-07-03T12:16:59;36.50;38.50
10010;DHT22;5044;48.652;9.250;2022-07-03T12:19:26;36.40;39.60
10010;DHT22;5044;48.652;9.250;2022-07-03T12:21:54;36.30;37.90
10010;DHT22;5044;48.652;9.250;2022-07-03T12:24:22;36.20;38.50
10010;DHT22;5044;48.652;9.250;2022-07-03T12:26:49;35.90;36.60
10010;DHT22;5044;48.652;9.250;2022-07-03T12:29:17;35.00;35.80
10010;DHT22;5044;48.652;9.250;2022-07-03T12:31:46;35.20;36.80
10010;DHT22;5044;48.652;9.250;2022-07-03T12:34:14;36.20;39.20
10010;DHT22;5044;48.652;9.250;2022-07-03T12:36:55;36.80;37.50
10010;DHT22;5044;48.652;9.250;2022-07-03T12:39:23;36.90;37.60
10010;DHT22;5044;48.652;9.250;2022-07-03T12:41:50;37.30;37.10
10010;DHT22;5044;48.652;9.250;2022-07-03T12:44:16;36.90;36.00
10010;DHT22;5044;48.652;9.250;2022-07-03T12:46:46;36.80;37.70
10010;DHT22;5044;48.652;9.250;2022-07-03T12:49:14;36.10;35.10
10010;DHT22;5044;48.652;9.250;2022-07-03T12:51:43;36.60;36.90
10010;DHT22;5044;48.652;9.250;2022-07-03T12:54:13;35.90;34.10
10010;DHT22;5044;48.652;9.250;2022-07-03T12:56:41;36.20;35.80
10010;DHT22;5044;48.652;9.250;2022-07-03T12:59:24;35.90;34.40
10010;DHT22;5044;48.652;9.250;2022-07-03T13:02:01;36.20;34.90
10010;DHT22;5044;48.652;9.250;2022-07-03T13:04:33;36.60;35.50
10010;DHT22;5044;48.652;9.250;2022-07-03T13:07:01;36.30;35.20
10010;DHT22;5044;48.652;9.250;2022-07-03T13:09:30;36.20;34.60
10010;DHT22;5044;48.652;9.250;2022-07-03T13:11:57;36.50;35.20
10010;DHT22;5044;48.652;9.250;2022-07-03T13:14:24;35.90;33.90
10010;DHT22;5044;48.652;9.250;2022-07-03T13:16:52;35.70;34.20
10010;DHT22;5044;48.652;9.250;2022-07-03T13:19:19;36.60;36.40
10010;DHT22;5044;48.652;9.250;2022-07-03T13:21:47;37.00;35.30
10010;DHT22;5044;48.652;9.250;2022-07-03T13:24:15;37.40;35.20
10010;DHT22;5044;48.652;9.250;2022-07-03T13:26:45;37.10;34.70
10010;DHT22;5044;48.652;9.250;2022-07-03T13:29:12;37.50;36.60
10010;DHT22;5044;48.652;9.250;2022-07-03T13:31:39;37.00;33.20
10010;DHT22;5044;48.652;9.250;2022-07-03T13:34:06;36.60;32.10
10010;DHT22;5044;48.652;9.250;2022-07-03T13:36:33;37.40;34.30
10010;DHT22;5044;48.652;9.250;2022-07-03T13:39:00;36.90;33.20
10010;DHT22;5044;48.652;9.250;2022-07-03T13:41:28;37.10;34.40
10010;DHT22;5044;48.652;9.250;2022-07-03T13:43:56;38.00;35.40
10010;DHT22;5044;48.652;9.250;2022-07-03T13:46:23;37.40;34.10
10010;DHT22;5044;48.652;9.250;2022-07-03T13:48:51;37.80;35.60
10010;DHT22;5044;48.652;9.250;2022-07-03T13:51:18;38.10;34.90
10010;DHT22;5044;48.652;9.250;2022-07-03T13:53:45;38.20;34.50
10010;DHT22;5044;48.652;9.250;2022-07-03T13:56:14;38.00;34.30
10010;DHT22;5044;48.652;9.250;2022-07-03T13:58:41;37.80;34.00
10010;DHT22;5044;48.652;9.250;2022-07-03T14:01:09;37.50;33.80
10010;DHT22;5044;48.652;9.250;2022-07-03T14:03:36;36.70;32.60
10010;DHT22;5044;48.652;9.250;2022-07-03T14:06:03;35.90;32.60
10010;DHT22;5044;48.652;9.250;2022-07-03T14:08:31;36.50;33.50
10010;DHT22;5044;48.652;9.250;2022-07-03T14:11:00;36.50;34.50
10010;DHT22;5044;48.652;9.250;2022-07-03T14:13:27;37.10;35.10
10010;DHT22;5044;48.652;9.250;2022-07-03T14:15:54;37.40;34.30
10010;DHT22;5044;48.652;9.250;2022-07-03T14:18:22;36.40;32.30
10010;DHT22;5044;48.652;9.250;2022-07-03T14:20:49;36.70;34.60
10010;DHT22;5044;48.652;9.250;2022-07-03T14:23:16;37.50;35.80
10010;DHT22;5044;48.652;9.250;2022-07-03T14:25:43;38.00;35.40
10010;DHT22;5044;48.652;9.250;2022-07-03T14:28:10;37.80;34.70
10010;DHT22;5044;48.652;9.250;2022-07-03T14:30:54;37.40;34.00
10010;DHT22;5044;48.652;9.250;2022-07-03T14:33:40;37.00;33.40
10010;DHT22;5044;48.652;9.250;2022-07-03T14:36:06;36.50;33.70
10010;DHT22;5044;48.652;9.250;2022-07-03T14:38:33;36.30;33.10
10010;DHT22;5044;48.652;9.250;2022-07-03T14:41:00;36.70;33.90
10010;DHT22;5044;48.652;9.250;2022-07-03T14:43:27;36.60;33.00
10010;DHT22;5044;48.652;9.250;2022-07-03T14:45:54;36.30;32.00
10010;DHT22;5044;48.652;9.250;2022-07-03T14:48:21;35.90;31.00
10010;DHT22;5044;48.652;9.250;2022-07-03T14:50:49;36.80;34.30
10010;DHT22;5044;48.652;9.250;2022-07-03T14:53:16;37.70;34.50
10010;DHT22;5044;48.652;9.250;2022-07-03T14:55:44;37.40;34.00
10010;DHT22;5044;48.652;9.250;2022-07-03T14:58:15;36.70;33.40
10010;DHT22;5044;48.652;9.250;2022-07-03T15:00:47;36.90;32.80
10010;DHT22;5044;48.652;9.250;2022-07-03T15:03:18;35.70;31.40
10010;DHT22;5044;48.652;9.250;2022-07-03T15:05:47;36.00;32.40
10010;DHT22;5044;48.652;9.250;2022-07-03T15:11:21;36.40;33.10
10010;DHT22;5044;48.652;9.250;2022-07-03T15:14:03;35.90;33.20
10010;DHT22;5044;48.652;9.250;2022-07-03T15:16:33;35.60;32.60
10010;DHT22;5044;48.652;9.250;2022-07-03T15:19:01;35.80;34.40
10010;DHT22;5044;48.652;9.250;2022-07-03T15:21:30;36.40;35.30
10010;DHT22;5044;48.652;9.250;2022-07-03T15:24:01;36.30;35.30
10010;DHT22;5044;48.652;9.250;2022-07-03T15:26:31;36.10;35.30
10010;DHT22;5044;48.652;9.250;2022-07-03T15:29:00;35.60;34.70
10010;DHT22;5044;48.652;9.250;2022-07-03T15:31:28;35.60;35.70
10010;DHT22;5044;48.652;9.250;2022-07-03T15:33:55;35.80;35.80
10010;DHT22;5044;48.652;9.250;2022-07-03T15:36:26;36.00;37.40
10010;DHT22;5044;48.652;9.250;2022-07-03T15:39:01;35.60;37.40
10010;DHT22;5044;48.652;9.250;2022-07-03T15:41:37;35.50;37.80
10010;DHT22;5044;48.652;9.250;2022-07-03T15:44:15;35.60;38.20
10010;DHT22;5044;48.652;9.250;2022-07-03T15:46:55;35.90;38.80
10010;DHT22;5044;48.652;9.250;2022-07-03T15:49:27;36.00;38.00
10010;DHT22;5044;48.652;9.250;2022-07-03T15:52:10;36.00;38.20
10010;DHT22;5044;48.652;9.250;2022-07-03T15:54:47;35.50;38.10
10010;DHT22;5044;48.652;9.250;2022-07-03T15:57:19;35.60;38.50
10010;DHT22;5044;48.652;9.250;2022-07-03T15:59:56;34.80;39.90
10010;DHT22;5044;48.652;9.250;2022-07-03T16:02:29;34.80;38.90
10010;DHT22;5044;48.652;9.250;2022-07-03T16:05:04;35.00;39.30
10010;DHT22;5044;48.652;9.250;2022-07-03T16:07:35;35.30;39.30
10010;DHT22;5044;48.652;9.250;2022-07-03T16:10:04;34.80;38.10
10010;DHT22;5044;48.652;9.250;2022-07-03T16:12:32;34.50;38.80
10010;DHT22;5044;48.652;9.250;2022-07-03T16:15:00;34.50;39.30
10010;DHT22;5044;48.652;9.250;2022-07-03T16:17:28;33.60;39.50
10010;DHT22;5044;48.652;9.250;2022-07-03T16:19:57;34.00;41.40
10010;DHT22;5044;48.652;9.250;2022-07-03T16:22:26;34.30;41.10
10010;DHT22;5044;48.652;9.250;2022-07-03T16:24:55;34.10;40.60
10010;DHT22;5044;48.652;9.250;2022-07-03T16:27:23;33.70;40.90
10010;DHT22;5044;48.652;9.250;2022-07-03T16:29:52;33.40;41.10
10010;DHT22;5044;48.652;9.250;2022-07-03T16:32:23;33.50;42.10
10010;DHT22;5044;48.652;9.250;2022-07-03T16:34:58;33.40;41.40
10010;DHT22;5044;48.652;9.250;2022-07-03T16:37:33;33.20;42.00
10010;DHT22;5044;48.652;9.250;2022-07-03T16:40:03;33.10;43.10
10010;DHT22;5044;48.652;9.250;2022-07-03T16:42:31;32.90;43.70
10010;DHT22;5044;48.652;9.250;2022-07-03T16:45:04;32.70;43.30
10010;DHT22;5044;48.652;9.250;2022-07-03T16:47:37;32.50;43.50
10010;DHT22;5044;48.652;9.250;2022-07-03T16:50:05;32.40;44.70
10010;DHT22;5044;48.652;9.250;2022-07-03T16:52:33;32.40;44.30
10010;DHT22;5044;48.652;9.250;2022-07-03T16:55:03;32.30;45.60
10010;DHT22;5044;48.652;9.250;2022-07-03T16:57:30;32.40;46.30
10010;DHT22;5044;48.652;9.250;2022-07-03T16:59:58;32.10;45.30
10010;DHT22;5044;48.652;9.250;2022-07-03T17:02:27;31.80;45.40
10010;DHT22;5044;48.652;9.250;2022-07-03T17:04:54;31.60;46.30
10010;DHT22;5044;48.652;9.250;2022-07-03T17:07:22;31.40;46.40
10010;DHT22;5044;48.652;9.250;2022-07-03T17:09:50;31.20;48.00
10010;DHT22;5044;48.652;9.250;2022-07-03T17:12:17;31.30;47.40
10010;DHT22;5044;48.652;9.250;2022-07-03T17:14:44;31.20;47.40
10010;DHT22;5044;48.652;9.250;2022-07-03T17:17:14;31.20;48.10
10010;DHT22;5044;48.652;9.250;2022-07-03T17:19:49;31.20;47.70
10010;DHT22;5044;48.652;9.250;2022-07-03T17:22:19;31.00;47.80
10010;DHT22;5044;48.652;9.250;2022-07-03T17:24:53;31.10;46.10